Change the Weather History Date:

Sunday, January 20, 2013

  Actual Average (KMRF) Record (KMRF)
Temperature  
Mean Temperature 48 °F -  
Max Temperature 68 °F 58 °F 73 °F (1999)
Min Temperature 29 °F 27 °F 8 °F (2008)
Degree Days  
Heating Degree Days 16    
Moisture  
Dew Point 24 °F    
Average Humidity 48    
Maximum Humidity 77    
Minimum Humidity 18    
Precipitation  
Precipitation 0.00 in - - ()
Sea Level Pressure  
Sea Level Pressure 30.27 in    
Wind  
Wind Speed 7 mph (SSW)    
Max Wind Speed 14 mph    
Max Gust Speed 24 mph    
Visibility 10 miles    
Events      
Averages and records for this station are not official NWS values.
T = Trace of Precipitation, MM = Missing Value Source: NWS Daily Summary

Daily Weather History Graph

Daily Weather History Graph

Search for Another Location

Airport or City:

Trip Planner

Search our weather history database for the weather conditions in past years. The results will help you decide how hot, cold, wet, or windy it might be!

Date:

Astronomy

Jan. 20, 2013 Rise Set
Actual Time 7:50 AM CST 6:21 PM CST
Civil Twilight 7:25 AM CST 6:46 PM CST
Nautical Twilight 6:55 AM CST 7:16 PM CST
Astronomical Twilight 6:27 AM CST 7:44 PM CST
Moon 1:22 PM CST (1/20) 2:27 AM CST (1/20)
Length of Visible Light 11h 21m
Length of Day
10h 30m
Waxing Gibbous, 66% of the Moon is Illuminated
Jan 20
Waxing Gibbous
Jan 26
Full
Feb 3
Last Quarter
Feb 10
New
Feb 17
First Quarter

Hourly Weather History & Observations

Time (CST) Temp. Windchill Dew Point Humidity Pressure Visibility Wind Dir Wind Speed Gust Speed Precip Events Conditions
12:15 AM 31.8 °F 25.4 °F 23.4 °F 71% 30.34 in 10.0 mi South 6.9 mph - N/A   Clear
12:35 AM 30.6 °F 22.4 °F 23.4 °F 75% 30.34 in 10.0 mi South 9.2 mph - N/A   Clear
12:55 AM 32.5 °F 24.8 °F 24.1 °F 71% 30.34 in 10.0 mi SW 9.2 mph - N/A   Clear
1:15 AM 33.4 °F 26.6 °F 23.7 °F 68% 30.34 in 10.0 mi SSW 8.1 mph - N/A   Clear
1:35 AM 33.8 °F 27.7 °F 23.9 °F 67% 30.33 in 10.0 mi SW 6.9 mph - N/A   Clear
1:55 AM 33.3 °F 28.9 °F 23.7 °F 68% 30.33 in 10.0 mi South 4.6 mph - N/A   Clear
2:15 AM 32.0 °F 24.8 °F 23.5 °F 71% 30.33 in 10.0 mi SSE 8.1 mph - N/A   Clear
2:35 AM 32.5 °F 27.1 °F 23.5 °F 69% 30.32 in 10.0 mi South 5.8 mph - N/A   Clear
2:55 AM 31.8 °F 25.4 °F 23.4 °F 71% 30.32 in 10.0 mi South 6.9 mph - N/A   Clear
3:15 AM 32.0 °F 26.4 °F 23.4 °F 70% 30.32 in 10.0 mi South 5.8 mph - N/A   Clear
3:35 AM 31.8 °F 23.9 °F 23.2 °F 70% 30.32 in 10.0 mi South 9.2 mph - N/A   Clear
3:55 AM 32.2 °F 25.0 °F 23.4 °F 70% 30.32 in 10.0 mi South 8.1 mph - N/A   Clear
4:15 AM 32.0 °F 25.6 °F 23.7 °F 71% 30.32 in 10.0 mi South 6.9 mph - N/A   Clear
4:35 AM 32.4 °F 25.3 °F 23.4 °F 69% 30.31 in 10.0 mi South 8.1 mph - N/A   Clear
4:55 AM 32.0 °F 25.6 °F 23.4 °F 70% 30.31 in 10.0 mi South 6.9 mph - N/A   Clear
5:15 AM 31.8 °F 25.4 °F 23.4 °F 71% 30.30 in 10.0 mi SSW 6.9 mph - N/A   Clear
5:35 AM 32.0 °F 26.4 °F 23.2 °F 70% 30.30 in 10.0 mi South 5.8 mph - N/A   Clear
6:15 AM 31.1 °F 25.4 °F 23.0 °F 72% 30.29 in 10.0 mi South 5.8 mph - N/A   Clear
6:35 AM 30.9 °F 25.2 °F 22.8 °F 72% 30.30 in 10.0 mi South 5.8 mph - N/A   Clear
6:55 AM 30.9 °F 25.2 °F 22.3 °F 70% 30.30 in 10.0 mi South 5.8 mph - N/A   Clear
7:15 AM 30.2 °F 24.3 °F 22.5 °F 73% 30.30 in 10.0 mi SW 5.8 mph - N/A   Clear
7:35 AM 29.5 °F 22.5 °F 22.5 °F 75% 30.30 in 10.0 mi SW 6.9 mph - N/A   Clear
7:55 AM 29.3 °F 23.2 °F 22.3 °F 75% 30.31 in 10.0 mi South 5.8 mph - N/A   Clear
8:15 AM 29.5 °F 21.1 °F 23.0 °F 77% 30.31 in 10.0 mi SSE 9.2 mph - N/A   Clear
8:35 AM 33.3 °F 27.9 °F 23.9 °F 69% 30.32 in 10.0 mi SSW 5.8 mph - N/A   Clear
8:55 AM 37.2 °F - 26.1 °F 64% 30.32 in 10.0 mi Calm Calm - N/A   Clear
9:15 AM 42.4 °F 40.7 °F 26.4 °F 53% 30.32 in 10.0 mi South 3.5 mph - N/A   Clear
9:35 AM 47.1 °F - 26.1 °F 44% 30.32 in 10.0 mi Calm Calm - N/A   Clear
9:55 AM 50.5 °F - 24.1 °F 36% 30.34 in 10.0 mi Calm Calm - N/A   Clear
10:15 AM 53.4 °F - 23.2 °F 31% 30.34 in 10.0 mi Calm Calm - N/A   Clear
10:35 AM 55.2 °F - 20.5 °F 26% 30.34 in 10.0 mi Calm Calm - N/A   Clear
10:55 AM 56.8 °F - 20.7 °F 25% 30.33 in 10.0 mi Calm Calm - N/A   Clear
11:15 AM 58.8 °F - 20.7 °F 23% 30.33 in 10.0 mi Calm Calm - N/A   Clear
11:35 AM 60.4 °F - 20.7 °F 22% 30.32 in 10.0 mi South 3.5 mph - N/A   Clear
11:55 AM 62.8 °F - 19.4 °F 19% 30.31 in 10.0 mi SSW 9.2 mph - N/A   Clear
12:15 PM 63.9 °F - 19.4 °F 18% 30.29 in 10.0 mi SSW 9.2 mph - N/A   Clear
12:35 PM 64.8 °F - 20.7 °F 19% 30.28 in 10.0 mi SW 10.4 mph - N/A   Clear
12:55 PM 65.7 °F - 21.9 °F 19% 30.26 in 10.0 mi SSW 10.4 mph - N/A   Clear
1:15 PM 66.6 °F - 23.5 °F 20% 30.25 in 10.0 mi SSW 13.8 mph 17.3 mph N/A   Clear
1:35 PM 66.4 °F - 23.5 °F 20% 30.24 in 10.0 mi SW 10.4 mph 17.3 mph N/A   Clear
1:55 PM 67.3 °F - 24.3 °F 20% 30.23 in 10.0 mi SSW 11.5 mph - N/A   Clear
2:15 PM 67.6 °F - 24.1 °F 19% 30.21 in 10.0 mi SW 12.7 mph 16.1 mph N/A   Clear
3:15 PM 68.2 °F - 25.2 °F 20% 30.20 in 10.0 mi WSW 8.1 mph 24.2 mph N/A   Clear
3:35 PM 68.0 °F - 25.2 °F 20% 30.19 in 10.0 mi South 11.5 mph - N/A   Clear
3:55 PM 68.5 °F - 25.7 °F 20% 30.19 in 10.0 mi SSW 10.4 mph 16.1 mph N/A   Clear
4:15 PM 68.4 °F - 26.4 °F 21% 30.18 in 10.0 mi SSW 11.5 mph 17.3 mph N/A   Clear
4:35 PM 68.4 °F - 27.3 °F 22% 30.17 in 10.0 mi SW 9.2 mph - N/A   Clear
4:55 PM 68.2 °F - 27.5 °F 22% 30.17 in 10.0 mi SW 9.2 mph - N/A   Clear
5:15 PM 68.0 °F - 28.8 °F 23% 30.17 in 10.0 mi SW 8.1 mph - N/A   Clear
5:35 PM 67.1 °F - 28.9 °F 24% 30.17 in 10.0 mi WSW 9.2 mph - N/A   Clear
5:55 PM 65.3 °F - 29.3 °F 26% 30.18 in 10.0 mi SSW 4.6 mph - N/A   Clear
6:15 PM 62.1 °F - 28.0 °F 28% 30.19 in 10.0 mi NE 6.9 mph - N/A   Clear
6:55 PM 55.8 °F - 24.1 °F 29% 30.20 in 10.0 mi NE 3.5 mph - N/A   Clear
7:15 PM 53.2 °F - 24.3 °F 32% 30.21 in 10.0 mi Calm Calm - N/A   Clear
7:35 PM 51.6 °F - 23.9 °F 34% 30.22 in 10.0 mi WSW 3.5 mph - N/A   Clear
7:55 PM 48.2 °F - 23.7 °F 38% 30.22 in 10.0 mi Calm Calm - N/A   Clear
8:15 PM 47.7 °F - 23.7 °F 39% 30.22 in 10.0 mi WSW 4.6 mph - N/A   Clear
8:35 PM 45.7 °F 42.0 °F 24.3 °F 43% 30.22 in 10.0 mi SW 6.9 mph - N/A   Clear
8:55 PM 42.3 °F 36.8 °F 25.5 °F 52% 30.22 in 10.0 mi SW 9.2 mph - N/A   Clear
9:15 PM 40.5 °F 35.8 °F 26.1 °F 57% 30.22 in 10.0 mi South 6.9 mph - N/A   Clear
9:35 PM 38.7 °F 33.6 °F 27.0 °F 63% 30.22 in 10.0 mi SSW 6.9 mph - N/A   Clear
9:55 PM 38.8 °F 32.6 °F 27.0 °F 62% 30.22 in 10.0 mi SW 9.2 mph - N/A   Clear
10:15 PM 38.5 °F 34.1 °F 26.8 °F 63% 30.22 in 10.0 mi South 5.8 mph - N/A   Clear
10:35 PM 38.8 °F 33.2 °F 27.1 °F 63% 30.23 in 10.0 mi SSE 8.1 mph - N/A   Clear
10:55 PM 39.7 °F 37.6 °F 27.1 °F 61% 30.23 in 10.0 mi SSE 3.5 mph - N/A   Clear
11:15 PM 39.7 °F 36.5 °F 26.8 °F 60% 30.23 in 10.0 mi SW 4.6 mph - N/A   Clear
11:35 PM 39.9 °F 35.1 °F 26.6 °F 59% 30.22 in 10.0 mi SW 6.9 mph - N/A   Clear
11:55 PM 37.8 °F 33.3 °F 26.2 °F 63% 30.23 in 10.0 mi SW 5.8 mph - N/A   Clear